sensor_id;sensor_type;location;lat;lon;timestamp;P1;durP1;ratioP1;P2;durP2;ratioP2
40815;SDS011;26535;48.788;9.214;2022-08-19T05:03:40;26.98;;;20.73;;
40815;SDS011;26535;48.788;9.214;2022-08-19T05:06:07;25.75;;;19.88;;
40815;SDS011;26535;48.788;9.214;2022-08-19T05:08:35;28.25;;;20.63;;
40815;SDS011;26535;48.788;9.214;2022-08-19T05:11:10;27.88;;;20.13;;
40815;SDS011;26535;48.788;9.214;2022-08-19T05:13:36;28.98;;;20.80;;
40815;SDS011;26535;48.788;9.214;2022-08-19T05:16:03;29.58;;;21.05;;
40815;SDS011;26535;48.788;9.214;2022-08-19T05:18:29;27.17;;;20.85;;
40815;SDS011;26535;48.788;9.214;2022-08-19T05:21:14;26.35;;;20.40;;
40815;SDS011;26535;48.788;9.214;2022-08-19T05:24:01;26.58;;;19.48;;
40815;SDS011;26535;48.788;9.214;2022-08-19T05:26:27;24.00;;;19.13;;
40815;SDS011;26535;48.788;9.214;2022-08-19T05:28:53;27.77;;;20.38;;
40815;SDS011;26535;48.788;9.214;2022-08-19T05:31:20;26.15;;;20.00;;
40815;SDS011;26535;48.788;9.214;2022-08-19T05:33:46;25.98;;;21.02;;
40815;SDS011;26535;48.788;9.214;2022-08-19T05:36:12;28.63;;;20.25;;
40815;SDS011;26535;48.788;9.214;2022-08-19T05:38:39;25.05;;;20.58;;
40815;SDS011;26535;48.788;9.214;2022-08-19T05:41:08;26.38;;;20.48;;
40815;SDS011;26535;48.788;9.214;2022-08-19T05:43:35;24.85;;;19.98;;
40815;SDS011;26535;48.788;9.214;2022-08-19T05:46:02;25.08;;;20.58;;
40815;SDS011;26535;48.788;9.214;2022-08-19T05:48:32;25.45;;;20.38;;
40815;SDS011;26535;48.788;9.214;2022-08-19T05:51:02;25.70;;;19.45;;
40815;SDS011;26535;48.788;9.214;2022-08-19T05:53:33;26.17;;;20.52;;
40815;SDS011;26535;48.788;9.214;2022-08-19T05:56:07;26.55;;;19.88;;
40815;SDS011;26535;48.788;9.214;2022-08-19T05:58:35;27.52;;;22.05;;
40815;SDS011;26535;48.788;9.214;2022-08-19T06:01:02;26.45;;;20.80;;
40815;SDS011;26535;48.788;9.214;2022-08-19T06:03:32;27.48;;;21.65;;
40815;SDS011;26535;48.788;9.214;2022-08-19T06:05:58;26.37;;;19.20;;
40815;SDS011;26535;48.788;9.214;2022-08-19T06:08:27;27.27;;;21.25;;
40815;SDS011;26535;48.788;9.214;2022-08-19T06:10:54;25.60;;;20.38;;
40815;SDS011;26535;48.788;9.214;2022-08-19T06:13:20;26.52;;;20.25;;
40815;SDS011;26535;48.788;9.214;2022-08-19T06:15:47;26.95;;;20.17;;
40815;SDS011;26535;48.788;9.214;2022-08-19T06:18:14;24.88;;;20.80;;
40815;SDS011;26535;48.788;9.214;2022-08-19T06:20:43;25.35;;;20.05;;
40815;SDS011;26535;48.788;9.214;2022-08-19T06:25:35;27.60;;;20.60;;
40815;SDS011;26535;48.788;9.214;2022-08-19T06:28:01;27.27;;;20.65;;
40815;SDS011;26535;48.788;9.214;2022-08-19T06:30:27;26.10;;;20.05;;
40815;SDS011;26535;48.788;9.214;2022-08-19T06:32:53;28.27;;;21.63;;
40815;SDS011;26535;48.788;9.214;2022-08-19T06:35:19;25.83;;;20.42;;
40815;SDS011;26535;48.788;9.214;2022-08-19T06:37:44;25.08;;;19.90;;
40815;SDS011;26535;48.788;9.214;2022-08-19T06:40:11;28.35;;;20.83;;
40815;SDS011;26535;48.788;9.214;2022-08-19T06:42:37;27.00;;;21.42;;
40815;SDS011;26535;48.788;9.214;2022-08-19T06:45:06;29.17;;;21.88;;
40815;SDS011;26535;48.788;9.214;2022-08-19T06:47:33;26.75;;;20.67;;
40815;SDS011;26535;48.788;9.214;2022-08-19T06:50:00;27.67;;;21.77;;
40815;SDS011;26535;48.788;9.214;2022-08-19T06:55:03;26.17;;;20.65;;
40815;SDS011;26535;48.788;9.214;2022-08-19T06:57:32;27.10;;;21.42;;
40815;SDS011;26535;48.788;9.214;2022-08-19T06:59:59;28.85;;;20.90;;
40815;SDS011;26535;48.788;9.214;2022-08-19T07:02:25;28.55;;;20.60;;
40815;SDS011;26535;48.788;9.214;2022-08-19T07:04:52;25.45;;;20.48;;
40815;SDS011;26535;48.788;9.214;2022-08-19T07:07:18;25.88;;;20.00;;
40815;SDS011;26535;48.788;9.214;2022-08-19T07:09:45;26.60;;;20.77;;
40815;SDS011;26535;48.788;9.214;2022-08-19T07:12:12;29.33;;;20.75;;
40815;SDS011;26535;48.788;9.214;2022-08-19T07:14:41;24.67;;;19.90;;
40815;SDS011;26535;48.788;9.214;2022-08-19T07:17:09;25.10;;;19.75;;
40815;SDS011;26535;48.788;9.214;2022-08-19T07:19:36;24.85;;;20.90;;
40815;SDS011;26535;48.788;9.214;2022-08-19T07:22:03;27.70;;;20.48;;
40815;SDS011;26535;48.788;9.214;2022-08-19T07:24:31;26.33;;;20.08;;
40815;SDS011;26535;48.788;9.214;2022-08-19T07:26:58;24.75;;;19.73;;
40815;SDS011;26535;48.788;9.214;2022-08-19T07:29:28;26.02;;;20.27;;
40815;SDS011;26535;48.788;9.214;2022-08-19T07:31:55;26.27;;;20.83;;
40815;SDS011;26535;48.788;9.214;2022-08-19T07:34:29;26.52;;;20.45;;
40815;SDS011;26535;48.788;9.214;2022-08-19T07:36:55;23.05;;;18.98;;
40815;SDS011;26535;48.788;9.214;2022-08-19T07:39:23;26.33;;;19.33;;
40815;SDS011;26535;48.788;9.214;2022-08-19T07:41:52;24.95;;;19.63;;
40815;SDS011;26535;48.788;9.214;2022-08-19T07:44:18;24.55;;;19.05;;
40815;SDS011;26535;48.788;9.214;2022-08-19T07:46:47;27.35;;;19.60;;
40815;SDS011;26535;48.788;9.214;2022-08-19T07:49:15;23.27;;;18.52;;
40815;SDS011;26535;48.788;9.214;2022-08-19T07:52:17;23.63;;;17.60;;
40815;SDS011;26535;48.788;9.214;2022-08-19T07:54:36;21.58;;;18.00;;
40815;SDS011;26535;48.788;9.214;2022-08-19T07:57:06;22.60;;;17.98;;
40815;SDS011;26535;48.788;9.214;2022-08-19T07:59:35;24.02;;;17.55;;
40815;SDS011;26535;48.788;9.214;2022-08-19T08:02:01;24.42;;;19.63;;
40815;SDS011;26535;48.788;9.214;2022-08-19T08:04:29;23.58;;;17.90;;
40815;SDS011;26535;48.788;9.214;2022-08-19T08:07:14;24.42;;;18.73;;
40815;SDS011;26535;48.788;9.214;2022-08-19T08:09:59;28.05;;;18.75;;
40815;SDS011;26535;48.788;9.214;2022-08-19T08:12:28;27.25;;;18.38;;
40815;SDS011;26535;48.788;9.214;2022-08-19T08:14:59;26.92;;;19.80;;
40815;SDS011;26535;48.788;9.214;2022-08-19T08:17:32;23.75;;;18.08;;
40815;SDS011;26535;48.788;9.214;2022-08-19T08:19:58;26.38;;;19.15;;
40815;SDS011;26535;48.788;9.214;2022-08-19T08:22:25;23.58;;;18.23;;
40815;SDS011;26535;48.788;9.214;2022-08-19T08:25:15;30.52;;;19.35;;
40815;SDS011;26535;48.788;9.214;2022-08-19T08:33:22;23.00;;;18.60;;
40815;SDS011;26535;48.788;9.214;2022-08-19T08:35:49;23.10;;;18.52;;
40815;SDS011;26535;48.788;9.214;2022-08-19T08:38:15;23.88;;;18.65;;
40815;SDS011;26535;48.788;9.214;2022-08-19T08:40:44;28.63;;;18.90;;
40815;SDS011;26535;48.788;9.214;2022-08-19T08:45:59;26.23;;;19.00;;
40815;SDS011;26535;48.788;9.214;2022-08-19T08:48:35;23.98;;;19.38;;
40815;SDS011;26535;48.788;9.214;2022-08-19T08:51:09;24.00;;;18.83;;
40815;SDS011;26535;48.788;9.214;2022-08-19T08:53:39;25.42;;;18.67;;
40815;SDS011;26535;48.788;9.214;2022-08-19T08:56:07;25.67;;;18.77;;
40815;SDS011;26535;48.788;9.214;2022-08-19T09:01:09;22.23;;;17.80;;
40815;SDS011;26535;48.788;9.214;2022-08-19T09:03:36;20.90;;;17.60;;
40815;SDS011;26535;48.788;9.214;2022-08-19T09:11:25;23.65;;;17.80;;
40815;SDS011;26535;48.788;9.214;2022-08-19T09:14:07;20.92;;;16.77;;
40815;SDS011;26535;48.788;9.214;2022-08-19T09:17:07;19.83;;;15.77;;
40815;SDS011;26535;48.788;9.214;2022-08-19T09:19:57;21.63;;;16.13;;
40815;SDS011;26535;48.788;9.214;2022-08-19T09:22:30;22.60;;;16.98;;
40815;SDS011;26535;48.788;9.214;2022-08-19T09:24:56;19.83;;;16.42;;
40815;SDS011;26535;48.788;9.214;2022-08-19T09:27:22;21.90;;;17.20;;
40815;SDS011;26535;48.788;9.214;2022-08-19T09:29:49;26.52;;;16.35;;
40815;SDS011;26535;48.788;9.214;2022-08-19T09:32:16;19.13;;;16.63;;
40815;SDS011;26535;48.788;9.214;2022-08-19T09:34:43;20.65;;;17.13;;
40815;SDS011;26535;48.788;9.214;2022-08-19T09:37:09;21.67;;;16.00;;
40815;SDS011;26535;48.788;9.214;2022-08-19T09:39:36;20.05;;;16.15;;
40815;SDS011;26535;48.788;9.214;2022-08-19T09:42:03;20.70;;;16.27;;
40815;SDS011;26535;48.788;9.214;2022-08-19T09:44:29;21.63;;;15.68;;
40815;SDS011;26535;48.788;9.214;2022-08-19T09:46:55;19.55;;;15.55;;
40815;SDS011;26535;48.788;9.214;2022-08-19T09:49:21;20.17;;;16.33;;
40815;SDS011;26535;48.788;9.214;2022-08-19T09:51:51;18.10;;;15.23;;
40815;SDS011;26535;48.788;9.214;2022-08-19T09:54:18;17.63;;;14.18;;
40815;SDS011;26535;48.788;9.214;2022-08-19T09:56:44;18.95;;;15.00;;
40815;SDS011;26535;48.788;9.214;2022-08-19T09:59:10;18.85;;;14.55;;
40815;SDS011;26535;48.788;9.214;2022-08-19T10:01:37;15.07;;;13.05;;
40815;SDS011;26535;48.788;9.214;2022-08-19T10:04:03;18.25;;;13.68;;
40815;SDS011;26535;48.788;9.214;2022-08-19T10:06:33;15.40;;;13.45;;
40815;SDS011;26535;48.788;9.214;2022-08-19T10:09:00;15.38;;;12.98;;
40815;SDS011;26535;48.788;9.214;2022-08-19T10:13:55;16.13;;;12.98;;
40815;SDS011;26535;48.788;9.214;2022-08-19T10:16:21;17.23;;;14.38;;
40815;SDS011;26535;48.788;9.214;2022-08-19T10:18:48;17.05;;;13.18;;
40815;SDS011;26535;48.788;9.214;2022-08-19T10:21:16;16.45;;;13.40;;
40815;SDS011;26535;48.788;9.214;2022-08-19T10:23:45;15.40;;;13.27;;
40815;SDS011;26535;48.788;9.214;2022-08-19T10:26:14;15.95;;;12.40;;
40815;SDS011;26535;48.788;9.214;2022-08-19T10:28:43;16.50;;;13.20;;
40815;SDS011;26535;48.788;9.214;2022-08-19T10:31:10;17.02;;;14.07;;
40815;SDS011;26535;48.788;9.214;2022-08-19T10:33:48;18.38;;;13.88;;
40815;SDS011;26535;48.788;9.214;2022-08-19T10:36:19;16.98;;;12.80;;
40815;SDS011;26535;48.788;9.214;2022-08-19T10:38:53;18.63;;;12.85;;
40815;SDS011;26535;48.788;9.214;2022-08-19T10:41:24;17.38;;;12.93;;
40815;SDS011;26535;48.788;9.214;2022-08-19T10:43:55;15.43;;;12.40;;
40815;SDS011;26535;48.788;9.214;2022-08-19T10:46:23;17.48;;;12.07;;
40815;SDS011;26535;48.788;9.214;2022-08-19T10:48:51;14.13;;;11.52;;
40815;SDS011;26535;48.788;9.214;2022-08-19T10:51:17;13.90;;;11.60;;
40815;SDS011;26535;48.788;9.214;2022-08-19T10:54:02;13.32;;;11.27;;
40815;SDS011;26535;48.788;9.214;2022-08-19T10:56:29;12.60;;;10.75;;
40815;SDS011;26535;48.788;9.214;2022-08-19T10:59:15;14.70;;;11.07;;
40815;SDS011;26535;48.788;9.214;2022-08-19T11:01:43;13.15;;;11.07;;
40815;SDS011;26535;48.788;9.214;2022-08-19T11:04:10;14.88;;;10.40;;
40815;SDS011;26535;48.788;9.214;2022-08-19T11:06:41;15.57;;;10.18;;
40815;SDS011;26535;48.788;9.214;2022-08-19T11:09:09;13.23;;;9.13;;
40815;SDS011;26535;48.788;9.214;2022-08-19T11:11:36;11.93;;;8.85;;
40815;SDS011;26535;48.788;9.214;2022-08-19T11:14:06;14.57;;;10.30;;
40815;SDS011;26535;48.788;9.214;2022-08-19T11:16:33;9.70;;;8.30;;
40815;SDS011;26535;48.788;9.214;2022-08-19T11:18:59;11.02;;;8.88;;
40815;SDS011;26535;48.788;9.214;2022-08-19T11:21:27;11.30;;;9.02;;
40815;SDS011;26535;48.788;9.214;2022-08-19T11:23:57;12.57;;;8.45;;
40815;SDS011;26535;48.788;9.214;2022-08-19T11:26:26;10.65;;;8.85;;
40815;SDS011;26535;48.788;9.214;2022-08-19T11:28:54;10.15;;;7.65;;
40815;SDS011;26535;48.788;9.214;2022-08-19T11:31:23;12.15;;;8.77;;
40815;SDS011;26535;48.788;9.214;2022-08-19T11:33:51;12.57;;;7.97;;
40815;SDS011;26535;48.788;9.214;2022-08-19T11:36:18;11.38;;;8.98;;
40815;SDS011;26535;48.788;9.214;2022-08-19T11:38:46;16.85;;;13.93;;
40815;SDS011;26535;48.788;9.214;2022-08-19T11:41:14;14.52;;;12.10;;
40815;SDS011;26535;48.788;9.214;2022-08-19T11:43:41;16.17;;;12.73;;
40815;SDS011;26535;48.788;9.214;2022-08-19T11:46:09;18.02;;;13.50;;
40815;SDS011;26535;48.788;9.214;2022-08-19T11:48:38;16.45;;;12.55;;
40815;SDS011;26535;48.788;9.214;2022-08-19T11:51:05;19.48;;;14.50;;
40815;SDS011;26535;48.788;9.214;2022-08-19T11:53:33;23.55;;;16.30;;
40815;SDS011;26535;48.788;9.214;2022-08-19T11:56:00;25.00;;;15.60;;
40815;SDS011;26535;48.788;9.214;2022-08-19T11:58:26;24.20;;;17.10;;
40815;SDS011;26535;48.788;9.214;2022-08-19T12:00:52;19.92;;;15.98;;
40815;SDS011;26535;48.788;9.214;2022-08-19T12:03:18;23.73;;;18.08;;
40815;SDS011;26535;48.788;9.214;2022-08-19T12:05:44;22.42;;;17.48;;
40815;SDS011;26535;48.788;9.214;2022-08-19T12:08:11;22.67;;;17.70;;
40815;SDS011;26535;48.788;9.214;2022-08-19T12:10:52;23.80;;;17.95;;
40815;SDS011;26535;48.788;9.214;2022-08-19T12:13:17;25.45;;;18.10;;
40815;SDS011;26535;48.788;9.214;2022-08-19T12:15:45;21.75;;;17.85;;
40815;SDS011;26535;48.788;9.214;2022-08-19T12:18:12;22.02;;;17.17;;
40815;SDS011;26535;48.788;9.214;2022-08-19T12:20:39;22.88;;;18.25;;
40815;SDS011;26535;48.788;9.214;2022-08-19T12:23:07;23.05;;;17.77;;
40815;SDS011;26535;48.788;9.214;2022-08-19T12:25:35;25.17;;;17.50;;
40815;SDS011;26535;48.788;9.214;2022-08-19T12:28:02;23.67;;;17.40;;
40815;SDS011;26535;48.788;9.214;2022-08-19T12:30:28;20.48;;;16.63;;
40815;SDS011;26535;48.788;9.214;2022-08-19T12:32:54;23.30;;;16.85;;
40815;SDS011;26535;48.788;9.214;2022-08-19T12:35:20;22.05;;;16.48;;
40815;SDS011;26535;48.788;9.214;2022-08-19T12:37:46;16.30;;;14.20;;
40815;SDS011;26535;48.788;9.214;2022-08-19T12:40:13;20.70;;;16.52;;
40815;SDS011;26535;48.788;9.214;2022-08-19T12:42:40;18.55;;;15.48;;
40815;SDS011;26535;48.788;9.214;2022-08-19T12:45:08;21.80;;;16.08;;
40815;SDS011;26535;48.788;9.214;2022-08-19T12:47:35;20.60;;;16.30;;
40815;SDS011;26535;48.788;9.214;2022-08-19T12:50:01;20.02;;;14.95;;
40815;SDS011;26535;48.788;9.214;2022-08-19T12:52:26;19.33;;;15.43;;
40815;SDS011;26535;48.788;9.214;2022-08-19T12:54:56;19.27;;;16.65;;
40815;SDS011;26535;48.788;9.214;2022-08-19T12:57:23;19.42;;;15.38;;
40815;SDS011;26535;48.788;9.214;2022-08-19T12:59:53;19.75;;;15.70;;
40815;SDS011;26535;48.788;9.214;2022-08-19T13:02:19;19.85;;;16.83;;
40815;SDS011;26535;48.788;9.214;2022-08-19T13:04:46;18.42;;;15.40;;
40815;SDS011;26535;48.788;9.214;2022-08-19T13:07:12;18.60;;;15.00;;
40815;SDS011;26535;48.788;9.214;2022-08-19T13:09:39;18.17;;;15.55;;
40815;SDS011;26535;48.788;9.214;2022-08-19T13:12:07;19.77;;;15.55;;
40815;SDS011;26535;48.788;9.214;2022-08-19T13:14:38;23.50;;;17.70;;
40815;SDS011;26535;48.788;9.214;2022-08-19T13:17:05;24.83;;;19.42;;
40815;SDS011;26535;48.788;9.214;2022-08-19T13:19:31;25.33;;;20.13;;
40815;SDS011;26535;48.788;9.214;2022-08-19T13:21:57;27.13;;;21.20;;
40815;SDS011;26535;48.788;9.214;2022-08-19T13:24:24;24.85;;;20.08;;
40815;SDS011;26535;48.788;9.214;2022-08-19T13:26:53;26.42;;;20.98;;
40815;SDS011;26535;48.788;9.214;2022-08-19T13:29:19;26.90;;;21.27;;
40815;SDS011;26535;48.788;9.214;2022-08-19T13:32:03;29.35;;;23.15;;
40815;SDS011;26535;48.788;9.214;2022-08-19T13:34:48;29.63;;;23.17;;
40815;SDS011;26535;48.788;9.214;2022-08-19T13:37:13;30.17;;;22.42;;
40815;SDS011;26535;48.788;9.214;2022-08-19T13:39:39;31.60;;;23.88;;
40815;SDS011;26535;48.788;9.214;2022-08-19T13:42:05;33.72;;;25.00;;
40815;SDS011;26535;48.788;9.214;2022-08-19T13:44:34;29.17;;;24.38;;
40815;SDS011;26535;48.788;9.214;2022-08-19T13:49:34;34.00;;;25.65;;
40815;SDS011;26535;48.788;9.214;2022-08-19T13:52:01;33.28;;;24.05;;
40815;SDS011;26535;48.788;9.214;2022-08-19T13:54:28;32.03;;;25.00;;
40815;SDS011;26535;48.788;9.214;2022-08-19T13:56:56;33.58;;;25.40;;
40815;SDS011;26535;48.788;9.214;2022-08-19T13:59:22;29.73;;;23.23;;
40815;SDS011;26535;48.788;9.214;2022-08-19T14:01:48;25.33;;;21.17;;
40815;SDS011;26535;48.788;9.214;2022-08-19T14:04:15;27.83;;;22.27;;
40815;SDS011;26535;48.788;9.214;2022-08-19T14:06:40;28.13;;;23.05;;
40815;SDS011;26535;48.788;9.214;2022-08-19T14:09:06;35.65;;;25.80;;
40815;SDS011;26535;48.788;9.214;2022-08-19T14:11:32;30.13;;;24.63;;
40815;SDS011;26535;48.788;9.214;2022-08-19T14:13:58;33.53;;;25.60;;
40815;SDS011;26535;48.788;9.214;2022-08-19T14:16:24;29.38;;;22.58;;
40815;SDS011;26535;48.788;9.214;2022-08-19T14:18:50;25.00;;;19.50;;
40815;SDS011;26535;48.788;9.214;2022-08-19T14:21:20;23.20;;;19.65;;
40815;SDS011;26535;48.788;9.214;2022-08-19T14:23:48;22.52;;;19.60;;
40815;SDS011;26535;48.788;9.214;2022-08-19T14:26:16;22.80;;;19.27;;
40815;SDS011;26535;48.788;9.214;2022-08-19T14:31:09;23.90;;;19.00;;
40815;SDS011;26535;48.788;9.214;2022-08-19T14:33:45;25.40;;;19.40;;
40815;SDS011;26535;48.788;9.214;2022-08-19T14:36:12;25.95;;;21.08;;
40815;SDS011;26535;48.788;9.214;2022-08-19T14:38:37;23.30;;;20.10;;
40815;SDS011;26535;48.788;9.214;2022-08-19T14:43:41;20.55;;;17.50;;
40815;SDS011;26535;48.788;9.214;2022-08-19T14:46:18;20.48;;;17.25;;
40815;SDS011;26535;48.788;9.214;2022-08-19T14:48:48;18.40;;;14.88;;
40815;SDS011;26535;48.788;9.214;2022-08-19T14:51:15;22.75;;;18.70;;
40815;SDS011;26535;48.788;9.214;2022-08-19T14:53:45;20.80;;;17.63;;
40815;SDS011;26535;48.788;9.214;2022-08-19T14:56:13;20.55;;;16.88;;
40815;SDS011;26535;48.788;9.214;2022-08-19T14:58:45;20.58;;;15.95;;
40815;SDS011;26535;48.788;9.214;2022-08-19T15:01:11;20.67;;;17.25;;
40815;SDS011;26535;48.788;9.214;2022-08-19T15:03:40;18.80;;;15.13;;
40815;SDS011;26535;48.788;9.214;2022-08-19T15:06:06;18.15;;;15.80;;
40815;SDS011;26535;48.788;9.214;2022-08-19T15:08:33;19.08;;;15.77;;
40815;SDS011;26535;48.788;9.214;2022-08-19T15:11:02;17.27;;;14.02;;
40815;SDS011;26535;48.788;9.214;2022-08-19T15:13:32;16.75;;;13.40;;
40815;SDS011;26535;48.788;9.214;2022-08-19T15:15:58;17.80;;;15.82;;
40815;SDS011;26535;48.788;9.214;2022-08-19T15:18:23;19.60;;;16.45;;
40815;SDS011;26535;48.788;9.214;2022-08-19T15:20:58;20.05;;;15.68;;
40815;SDS011;26535;48.788;9.214;2022-08-19T15:23:24;17.67;;;15.77;;
40815;SDS011;26535;48.788;9.214;2022-08-19T15:26:06;19.77;;;17.20;;
40815;SDS011;26535;48.788;9.214;2022-08-19T15:28:33;19.67;;;16.42;;
40815;SDS011;26535;48.788;9.214;2022-08-19T15:30:59;21.77;;;17.63;;
40815;SDS011;26535;48.788;9.214;2022-08-19T15:33:26;21.77;;;18.00;;
40815;SDS011;26535;48.788;9.214;2022-08-19T15:36:00;20.17;;;15.70;;
40815;SDS011;26535;48.788;9.214;2022-08-19T15:38:26;21.38;;;16.88;;
40815;SDS011;26535;48.788;9.214;2022-08-19T15:40:52;19.02;;;16.33;;
40815;SDS011;26535;48.788;9.214;2022-08-19T15:43:18;19.85;;;16.17;;
40815;SDS011;26535;48.788;9.214;2022-08-19T15:48:12;17.23;;;14.73;;
40815;SDS011;26535;48.788;9.214;2022-08-19T15:50:37;16.77;;;14.45;;
40815;SDS011;26535;48.788;9.214;2022-08-19T15:53:07;15.70;;;13.75;;
40815;SDS011;26535;48.788;9.214;2022-08-19T15:55:36;15.63;;;13.98;;
40815;SDS011;26535;48.788;9.214;2022-08-19T15:58:08;17.80;;;13.90;;
40815;SDS011;26535;48.788;9.214;2022-08-19T16:00:54;15.20;;;13.55;;
40815;SDS011;26535;48.788;9.214;2022-08-19T16:03:39;17.77;;;14.20;;
40815;SDS011;26535;48.788;9.214;2022-08-19T16:06:23;17.92;;;14.82;;
40815;SDS011;26535;48.788;9.214;2022-08-19T16:08:55;18.58;;;15.05;;
40815;SDS011;26535;48.788;9.214;2022-08-19T16:11:24;18.73;;;15.30;;
40815;SDS011;26535;48.788;9.214;2022-08-19T16:13:57;17.50;;;14.73;;
40815;SDS011;26535;48.788;9.214;2022-08-19T16:16:32;17.15;;;15.23;;
40815;SDS011;26535;48.788;9.214;2022-08-19T16:19:00;17.15;;;15.40;;
40815;SDS011;26535;48.788;9.214;2022-08-19T16:21:31;17.75;;;15.27;;
40815;SDS011;26535;48.788;9.214;2022-08-19T16:23:59;17.38;;;14.25;;
40815;SDS011;26535;48.788;9.214;2022-08-19T16:26:39;19.60;;;15.95;;
40815;SDS011;26535;48.788;9.214;2022-08-19T16:29:06;16.07;;;14.33;;
40815;SDS011;26535;48.788;9.214;2022-08-19T16:31:33;17.83;;;15.02;;
40815;SDS011;26535;48.788;9.214;2022-08-19T16:33:59;16.02;;;13.80;;
40815;SDS011;26535;48.788;9.214;2022-08-19T16:36:25;15.90;;;14.23;;
40815;SDS011;26535;48.788;9.214;2022-08-19T16:38:51;18.77;;;15.55;;
40815;SDS011;26535;48.788;9.214;2022-08-19T16:41:18;18.83;;;14.93;;
40815;SDS011;26535;48.788;9.214;2022-08-19T16:43:45;19.55;;;16.30;;
40815;SDS011;26535;48.788;9.214;2022-08-19T16:46:11;19.00;;;16.05;;
40815;SDS011;26535;48.788;9.214;2022-08-19T16:48:37;18.35;;;15.70;;
40815;SDS011;26535;48.788;9.214;2022-08-19T16:51:10;18.33;;;16.02;;
40815;SDS011;26535;48.788;9.214;2022-08-19T16:53:37;19.42;;;15.80;;
40815;SDS011;26535;48.788;9.214;2022-08-19T16:56:05;22.30;;;17.93;;
40815;SDS011;26535;48.788;9.214;2022-08-19T16:58:32;21.10;;;17.67;;
40815;SDS011;26535;48.788;9.214;2022-08-19T17:00:59;23.73;;;17.38;;
40815;SDS011;26535;48.788;9.214;2022-08-19T17:05:54;19.92;;;15.93;;
40815;SDS011;26535;48.788;9.214;2022-08-19T17:08:22;20.05;;;17.25;;
40815;SDS011;26535;48.788;9.214;2022-08-19T17:10:51;20.77;;;16.38;;
40815;SDS011;26535;48.788;9.214;2022-08-19T17:15:45;19.50;;;16.63;;
40815;SDS011;26535;48.788;9.214;2022-08-19T17:18:12;18.65;;;16.10;;
40815;SDS011;26535;48.788;9.214;2022-08-19T17:20:38;19.48;;;16.75;;
40815;SDS011;26535;48.788;9.214;2022-08-19T17:23:06;20.23;;;16.85;;
40815;SDS011;26535;48.788;9.214;2022-08-19T17:25:32;22.17;;;17.00;;
40815;SDS011;26535;48.788;9.214;2022-08-19T17:28:08;22.95;;;17.65;;
40815;SDS011;26535;48.788;9.214;2022-08-19T17:30:37;22.08;;;16.80;;
40815;SDS011;26535;48.788;9.214;2022-08-19T17:33:02;19.83;;;17.25;;
40815;SDS011;26535;48.788;9.214;2022-08-19T17:35:29;20.63;;;17.35;;
40815;SDS011;26535;48.788;9.214;2022-08-19T17:37:55;25.65;;;17.70;;
40815;SDS011;26535;48.788;9.214;2022-08-19T17:40:22;19.08;;;16.92;;
40815;SDS011;26535;48.788;9.214;2022-08-19T17:42:50;21.63;;;17.40;;
40815;SDS011;26535;48.788;9.214;2022-08-19T17:45:16;21.20;;;18.17;;
40815;SDS011;26535;48.788;9.214;2022-08-19T17:47:44;23.48;;;19.10;;
40815;SDS011;26535;48.788;9.214;2022-08-19T17:50:10;22.75;;;18.58;;
40815;SDS011;26535;48.788;9.214;2022-08-19T17:52:37;19.75;;;17.13;;
40815;SDS011;26535;48.788;9.214;2022-08-19T17:55:04;22.42;;;17.65;;
40815;SDS011;26535;48.788;9.214;2022-08-19T17:57:31;22.00;;;16.85;;
40815;SDS011;26535;48.788;9.214;2022-08-19T17:59:57;19.27;;;16.65;;
40815;SDS011;26535;48.788;9.214;2022-08-19T18:02:23;23.25;;;18.73;;
40815;SDS011;26535;48.788;9.214;2022-08-19T18:04:49;22.25;;;18.02;;
40815;SDS011;26535;48.788;9.214;2022-08-19T18:07:15;21.30;;;19.00;;
40815;SDS011;26535;48.788;9.214;2022-08-19T18:09:45;23.52;;;18.45;;
40815;SDS011;26535;48.788;9.214;2022-08-19T18:12:23;22.88;;;17.60;;
40815;SDS011;26535;48.788;9.214;2022-08-19T18:14:52;20.55;;;17.65;;
40815;SDS011;26535;48.788;9.214;2022-08-19T18:17:18;20.75;;;17.95;;
40815;SDS011;26535;48.788;9.214;2022-08-19T18:19:47;21.00;;;17.42;;
40815;SDS011;26535;48.788;9.214;2022-08-19T18:22:33;21.67;;;15.32;;
40815;SDS011;26535;48.788;9.214;2022-08-19T18:25:03;21.98;;;17.77;;
40815;SDS011;26535;48.788;9.214;2022-08-19T18:27:36;21.35;;;18.15;;
40815;SDS011;26535;48.788;9.214;2022-08-19T18:30:04;21.95;;;16.45;;
40815;SDS011;26535;48.788;9.214;2022-08-19T18:32:31;20.70;;;16.98;;
40815;SDS011;26535;48.788;9.214;2022-08-19T18:35:04;20.27;;;16.40;;
40815;SDS011;26535;48.788;9.214;2022-08-19T18:37:35;22.10;;;17.48;;
40815;SDS011;26535;48.788;9.214;2022-08-19T18:40:03;21.05;;;15.88;;
40815;SDS011;26535;48.788;9.214;2022-08-19T18:42:52;21.58;;;18.00;;
40815;SDS011;26535;48.788;9.214;2022-08-19T18:45:37;21.80;;;18.45;;
40815;SDS011;26535;48.788;9.214;2022-08-19T18:48:22;20.23;;;17.90;;
40815;SDS011;26535;48.788;9.214;2022-08-19T18:51:07;22.08;;;17.58;;
40815;SDS011;26535;48.788;9.214;2022-08-19T18:53:35;21.85;;;17.65;;
40815;SDS011;26535;48.788;9.214;2022-08-19T18:58:30;20.23;;;17.27;;
40815;SDS011;26535;48.788;9.214;2022-08-19T19:01:04;21.63;;;17.85;;
40815;SDS011;26535;48.788;9.214;2022-08-19T19:03:42;20.20;;;17.67;;
40815;SDS011;26535;48.788;9.214;2022-08-19T19:06:10;23.58;;;18.58;;
40815;SDS011;26535;48.788;9.214;2022-08-19T19:08:38;23.00;;;18.20;;
40815;SDS011;26535;48.788;9.214;2022-08-19T19:11:05;21.98;;;19.02;;
40815;SDS011;26535;48.788;9.214;2022-08-19T19:13:33;21.27;;;18.33;;
40815;SDS011;26535;48.788;9.214;2022-08-19T19:16:00;23.40;;;18.53;;
40815;SDS011;26535;48.788;9.214;2022-08-19T19:18:27;22.58;;;18.50;;
40815;SDS011;26535;48.788;9.214;2022-08-19T19:20:53;23.13;;;18.27;;
40815;SDS011;26535;48.788;9.214;2022-08-19T19:23:20;24.63;;;18.83;;
40815;SDS011;26535;48.788;9.214;2022-08-19T19:25:46;23.92;;;19.23;;
40815;SDS011;26535;48.788;9.214;2022-08-19T19:28:14;21.35;;;16.60;;
40815;SDS011;26535;48.788;9.214;2022-08-19T19:30:59;23.65;;;19.15;;
40815;SDS011;26535;48.788;9.214;2022-08-19T19:33:26;24.38;;;18.95;;
40815;SDS011;26535;48.788;9.214;2022-08-19T19:35:55;26.42;;;19.40;;
40815;SDS011;26535;48.788;9.214;2022-08-19T19:38:21;24.90;;;21.08;;
40815;SDS011;26535;48.788;9.214;2022-08-19T19:40:47;25.35;;;21.45;;
40815;SDS011;26535;48.788;9.214;2022-08-19T19:43:16;23.90;;;20.88;;
40815;SDS011;26535;48.788;9.214;2022-08-19T19:45:46;26.30;;;20.63;;
40815;SDS011;26535;48.788;9.214;2022-08-19T19:48:13;25.27;;;20.10;;
40815;SDS011;26535;48.788;9.214;2022-08-19T19:50:41;23.15;;;19.67;;
40815;SDS011;26535;48.788;9.214;2022-08-19T19:53:11;25.27;;;20.27;;
40815;SDS011;26535;48.788;9.214;2022-08-19T19:55:40;25.60;;;20.25;;
40815;SDS011;26535;48.788;9.214;2022-08-19T19:58:06;24.00;;;20.00;;
40815;SDS011;26535;48.788;9.214;2022-08-19T20:00:32;25.50;;;19.52;;
40815;SDS011;26535;48.788;9.214;2022-08-19T20:02:58;22.08;;;19.45;;
40815;SDS011;26535;48.788;9.214;2022-08-19T20:05:24;24.08;;;18.38;;
40815;SDS011;26535;48.788;9.214;2022-08-19T20:07:51;24.08;;;19.40;;
40815;SDS011;26535;48.788;9.214;2022-08-19T20:10:37;21.25;;;18.98;;
40815;SDS011;26535;48.788;9.214;2022-08-19T20:13:04;23.30;;;18.65;;
40815;SDS011;26535;48.788;9.214;2022-08-19T20:15:30;19.83;;;17.63;;